Time;durP1;ratioP1;P1;durP2;ratioP2;P2;SDS_P1;SDS_P2;PMS_P1;PMS_P2;Temp;Humidity;BMP_temperature;BMP_pressure;BME280_temperature;BME280_humidity;BME280_pressure;Samples;Min_cycle;Max_cycle;Signal;HPM_P1;HPM_P2
2023/04/10 00:01:08;;;;;;;55.97;35.35;;;6.80;99.90;;;;;;5034651;28;20532;-65
2023/04/10 00:03:34;;;;;;;55.72;34.33;;;6.70;99.90;;;;;;5063633;28;20083;-65
2023/04/10 00:05:59;;;;;;;60.50;36.28;;;6.70;99.90;;;;;;5060115;28;20147;-65
2023/04/10 00:08:25;;;;;;;56.92;36.30;;;6.70;99.90;;;;;;5070492;28;20516;-65
2023/04/10 00:10:53;;;;;;;56.17;34.75;;;6.60;99.90;;;;;;5068415;28;20032;-65
2023/04/10 00:13:19;;;;;;;59.80;36.60;;;6.60;99.90;;;;;;5067394;28;20048;-64
2023/04/10 00:15:45;;;;;;;61.50;36.88;;;6.60;99.90;;;;;;5069492;28;20039;-65
2023/04/10 00:18:11;;;;;;;60.42;36.92;;;6.60;99.90;;;;;;5068804;28;20470;-65
2023/04/10 00:20:36;;;;;;;62.13;37.95;;;6.60;99.90;;;;;;5069700;28;20136;-65
2023/04/10 00:23:02;;;;;;;59.78;38.08;;;6.60;99.90;;;;;;5063514;28;20033;-65
2023/04/10 00:25:28;;;;;;;57.50;36.50;;;6.60;99.90;;;;;;5067914;28;20040;-65
2023/04/10 00:27:54;;;;;;;61.60;37.72;;;6.60;99.90;;;;;;5052420;28;20032;-65
2023/04/10 00:30:20;;;;;;;64.50;38.28;;;6.60;99.90;;;;;;5063262;28;20037;-65
2023/04/10 00:32:46;;;;;;;61.88;38.00;;;6.60;99.90;;;;;;5067124;28;20033;-65
2023/04/10 00:35:12;;;;;;;61.20;37.78;;;6.70;99.90;;;;;;5061524;28;20414;-65
2023/04/10 00:37:38;;;;;;;65.50;40.22;;;6.70;99.90;;;;;;5067670;28;20032;-65
2023/04/10 00:40:05;;;;;;;61.17;39.13;;;6.60;99.90;;;;;;5066000;28;20557;-65
2023/04/10 00:42:31;;;;;;;61.83;38.72;;;6.60;99.90;;;;;;5069744;28;20035;-65
2023/04/10 00:44:58;;;;;;;66.88;39.83;;;6.60;99.90;;;;;;5069906;28;20401;-65
2023/04/10 00:47:25;;;;;;;61.63;38.42;;;6.60;99.90;;;;;;5070124;28;20028;-65
2023/04/10 00:49:51;;;;;;;69.28;40.28;;;6.60;99.90;;;;;;5067678;28;20485;-65
2023/04/10 00:52:17;;;;;;;67.70;40.25;;;6.60;99.90;;;;;;5068556;28;20897;-65
2023/04/10 00:54:42;;;;;;;60.40;39.33;;;6.60;99.90;;;;;;5043552;28;20049;-65
2023/04/10 00:57:08;;;;;;;67.32;41.60;;;6.60;99.90;;;;;;5070069;28;20109;-65
2023/04/10 00:59:34;;;;;;;63.45;38.85;;;6.60;99.90;;;;;;5075968;28;20053;-65
2023/04/10 01:02:00;;;;;;;59.67;39.33;;;6.60;99.90;;;;;;5067646;28;20398;-65
2023/04/10 01:04:27;;;;;;;72.72;41.90;;;6.50;99.90;;;;;;5067781;28;20052;-65
2023/04/10 01:07:20;;;;;;;65.18;39.67;;;6.50;99.90;;;;;;5063984;28;20062;-65
2023/04/10 01:10:04;;;;;;;64.72;40.40;;;6.40;99.90;;;;;;5069270;28;20119;-64
2023/04/10 01:12:48;;;;;;;61.60;37.55;;;6.40;99.90;;;;;;5069287;28;20028;-65
2023/04/10 01:15:24;;;;;;;64.05;38.00;;;6.40;99.90;;;;;;5067257;28;20037;-65
2023/04/10 01:18:10;;;;;;;65.68;39.72;;;6.40;99.90;;;;;;5063691;28;20036;-65
2023/04/10 01:20:40;;;;;;;62.85;38.60;;;6.40;99.90;;;;;;5066354;28;20122;-65
2023/04/10 01:23:35;;;;;;;66.03;40.00;;;6.40;99.90;;;;;;5068028;28;20036;-64
2023/04/10 01:26:06;;;;;;;71.75;40.80;;;6.40;99.90;;;;;;5068837;28;20131;-65
2023/04/10 01:28:59;;;;;;;66.63;39.35;;;6.30;99.90;;;;;;5069581;28;20123;-65
2023/04/10 01:31:52;;;;;;;66.43;39.85;;;6.30;99.90;;;;;;5069008;28;20036;-65
2023/04/10 01:34:31;;;;;;;70.10;40.20;;;6.30;99.90;;;;;;5064582;28;20107;-65
2023/04/10 01:37:03;;;;;;;64.05;40.42;;;6.30;99.90;;;;;;5067217;28;20374;-65
2023/04/10 01:39:30;;;;;;;65.73;40.00;;;6.20;99.90;;;;;;5069093;28;20041;-65
2023/04/10 01:41:58;;;;;;;61.10;39.17;;;6.20;99.90;;;;;;5065923;28;20059;-65
2023/04/10 01:44:27;;;;;;;61.33;39.33;;;6.10;99.90;;;;;;5069250;28;20103;-65
2023/04/10 01:46:55;;;;;;;63.28;39.10;;;6.10;99.90;;;;;;5067568;28;20036;-65
2023/04/10 01:49:24;;;;;;;63.05;39.03;;;6.10;99.90;;;;;;5068398;28;20040;-65
2023/04/10 01:51:50;;;;;;;56.95;36.42;;;6.00;99.90;;;;;;5068251;28;20032;-65
2023/04/10 01:54:16;;;;;;;60.72;37.60;;;6.10;99.90;;;;;;5064911;28;20102;-65
2023/04/10 01:56:43;;;;;;;59.28;37.53;;;6.10;99.90;;;;;;5080009;28;20040;-64
2023/04/10 01:59:08;;;;;;;61.13;37.53;;;6.10;99.90;;;;;;5068378;28;20037;-65
2023/04/10 02:01:34;;;;;;;61.25;37.25;;;6.10;99.90;;;;;;5065499;28;20037;-65
2023/04/10 02:04:01;;;;;;;59.72;36.28;;;6.10;99.90;;;;;;5068189;28;20032;-65
2023/04/10 02:06:58;;;;;;;60.90;37.92;;;6.10;99.90;;;;;;5067730;28;20612;-65
2023/04/10 02:09:53;;;;;;;63.75;37.38;;;6.10;99.90;;;;;;5067074;28;20133;-65
2023/04/10 02:12:25;;;;;;;61.22;36.88;;;6.00;99.90;;;;;;5063407;28;20048;-65
2023/04/10 02:14:52;;;;;;;59.83;37.90;;;6.00;99.90;;;;;;5069408;28;20430;-65
2023/04/10 02:17:28;;;;;;;59.38;37.75;;;6.00;99.90;;;;;;5068062;28;20036;-65
2023/04/10 02:19:58;;;;;;;61.67;36.00;;;6.00;99.90;;;;;;5059471;28;20043;-65
2023/04/10 02:22:25;;;;;;;58.35;36.05;;;5.90;99.90;;;;;;5061719;28;20037;-65
2023/04/10 02:24:54;;;;;;;59.63;37.13;;;5.90;99.90;;;;;;5067424;28;20044;-65
2023/04/10 02:27:27;;;;;;;58.67;35.22;;;5.90;99.90;;;;;;5064552;28;20036;-65
2023/04/10 02:29:53;;;;;;;59.20;35.05;;;6.00;99.90;;;;;;5071385;28;20036;-65
2023/04/10 02:32:19;;;;;;;55.92;35.63;;;6.00;99.90;;;;;;5071581;28;20161;-65
2023/04/10 02:34:45;;;;;;;54.70;34.78;;;6.00;99.90;;;;;;5071361;28;20441;-65
2023/04/10 02:37:10;;;;;;;60.85;35.63;;;5.90;99.90;;;;;;5079220;28;20063;-65
2023/04/10 02:39:36;;;;;;;57.97;35.40;;;5.90;99.90;;;;;;5070383;28;20052;-64
2023/04/10 02:42:02;;;;;;;53.72;33.95;;;5.90;99.90;;;;;;5070119;28;20036;-65
2023/04/10 02:44:27;;;;;;;61.58;34.72;;;5.90;99.90;;;;;;5064358;28;20036;-65
2023/04/10 02:46:53;;;;;;;57.20;34.92;;;5.90;99.90;;;;;;5071384;28;20595;-65
2023/04/10 02:49:19;;;;;;;56.65;34.33;;;5.90;99.90;;;;;;5071296;28;20051;-65
2023/04/10 02:51:45;;;;;;;55.83;35.25;;;5.80;99.90;;;;;;5071394;28;20556;-65
2023/04/10 02:54:11;;;;;;;58.08;34.85;;;5.90;99.90;;;;;;5071842;28;20045;-65
2023/04/10 02:56:36;;;;;;;56.67;35.75;;;5.90;99.90;;;;;;5052362;28;20102;-65
2023/04/10 02:59:02;;;;;;;53.85;33.25;;;5.90;99.90;;;;;;5045088;28;20048;-65
2023/04/10 03:01:28;;;;;;;54.28;33.38;;;5.90;99.90;;;;;;5070340;28;20048;-65
2023/04/10 03:03:54;;;;;;;58.70;34.22;;;5.90;99.90;;;;;;5080606;28;20485;-64
2023/04/10 03:06:20;;;;;;;57.65;34.75;;;5.90;99.90;;;;;;5069707;28;20059;-64
2023/04/10 03:08:46;;;;;;;57.58;34.53;;;5.90;99.90;;;;;;5071158;28;20435;-65
2023/04/10 03:11:12;;;;;;;57.63;34.05;;;5.90;99.90;;;;;;5070065;28;20112;-65
2023/04/10 03:13:38;;;;;;;56.13;34.05;;;5.90;99.90;;;;;;5065464;28;20040;-64
2023/04/10 03:16:04;;;;;;;58.30;34.00;;;5.90;99.90;;;;;;5067655;28;20035;-65
2023/04/10 03:18:30;;;;;;;56.67;34.42;;;5.90;99.90;;;;;;5070908;28;20049;-65
2023/04/10 03:20:56;;;;;;;58.67;35.08;;;5.90;99.90;;;;;;5065212;28;20044;-64
2023/04/10 03:23:22;;;;;;;57.70;34.28;;;5.90;99.90;;;;;;5068093;28;20043;-65
2023/04/10 03:25:54;;;;;;;56.00;35.03;;;5.80;99.90;;;;;;5065234;28;20128;-65
2023/04/10 03:28:21;;;;;;;58.65;35.90;;;5.90;99.90;;;;;;5066948;28;20045;-65
2023/04/10 03:30:47;;;;;;;60.05;35.63;;;5.90;99.90;;;;;;5065658;28;20040;-65
2023/04/10 03:33:13;;;;;;;56.90;34.75;;;5.90;99.90;;;;;;5065783;28;20044;-64
2023/04/10 03:35:38;;;;;;;58.97;34.40;;;6.00;99.90;;;;;;5063811;28;20044;-64
2023/04/10 03:38:04;;;;;;;67.20;36.95;;;6.00;99.90;;;;;;5067010;28;20040;-65
2023/04/10 03:40:32;;;;;;;61.17;36.45;;;6.10;99.90;;;;;;5065239;28;20127;-64
2023/04/10 03:42:58;;;;;;;57.67;36.50;;;6.10;99.90;;;;;;5064816;28;20036;-65
2023/04/10 03:45:23;;;;;;;61.15;36.42;;;6.10;99.90;;;;;;5059276;28;20032;-65
2023/04/10 03:47:49;;;;;;;63.83;38.20;;;6.10;99.90;;;;;;5064486;28;20087;-65
2023/04/10 03:50:15;;;;;;;66.18;37.33;;;6.20;99.90;;;;;;5066397;28;20181;-65
2023/04/10 03:52:41;;;;;;;70.15;39.65;;;6.20;99.90;;;;;;5065343;28;20047;-64
2023/04/10 03:55:07;;;;;;;69.63;39.40;;;6.20;99.90;;;;;;5061722;28;20429;-65
2023/04/10 03:57:32;;;;;;;69.60;40.95;;;6.20;99.90;;;;;;5043749;28;20048;-65
2023/04/10 03:59:58;;;;;;;68.72;40.90;;;6.30;99.90;;;;;;5066177;28;20045;-65
2023/04/10 04:02:24;;;;;;;70.43;40.65;;;6.30;99.90;;;;;;5063695;28;20028;-65
2023/04/10 04:04:49;;;;;;;64.03;39.13;;;6.30;99.90;;;;;;5064495;28;20037;-65
2023/04/10 04:07:15;;;;;;;72.47;40.97;;;6.30;99.90;;;;;;5065859;28;20032;-65
2023/04/10 04:09:41;;;;;;;75.90;41.95;;;6.30;99.90;;;;;;5066189;28;20115;-65
2023/04/10 04:12:07;;;;;;;70.05;40.80;;;6.30;99.90;;;;;;5066797;28;20044;-65
2023/04/10 04:14:33;;;;;;;68.35;41.92;;;6.30;99.90;;;;;;5064528;28;20043;-65
2023/04/10 04:16:58;;;;;;;71.07;42.13;;;6.30;99.90;;;;;;5067013;28;20120;-65
2023/04/10 04:19:24;;;;;;;67.82;40.78;;;6.20;99.90;;;;;;5062777;28;20040;-65
2023/04/10 04:21:50;;;;;;;68.90;41.35;;;6.20;99.90;;;;;;5062939;28;20394;-64
2023/04/10 04:24:16;;;;;;;68.53;40.60;;;6.20;99.90;;;;;;5065600;28;20033;-65
2023/04/10 04:26:41;;;;;;;69.72;42.63;;;6.20;99.90;;;;;;5062110;28;20469;-65
2023/04/10 04:29:07;;;;;;;79.00;45.75;;;6.30;99.90;;;;;;5064513;28;20079;-65
2023/04/10 04:31:33;;;;;;;69.45;42.80;;;6.20;99.90;;;;;;5061870;28;20064;-65
2023/04/10 04:33:59;;;;;;;78.20;41.80;;;6.20;99.90;;;;;;5049250;28;20029;-65
2023/04/10 04:36:27;;;;;;;77.85;44.63;;;6.20;99.90;;;;;;5064976;28;20497;-65
2023/04/10 04:38:55;;;;;;;77.82;42.97;;;6.20;99.90;;;;;;5080350;28;20139;-65
2023/04/10 04:41:21;;;;;;;73.80;43.15;;;6.10;99.90;;;;;;5062612;28;20040;-65
2023/04/10 04:43:48;;;;;;;73.00;43.83;;;6.10;99.90;;;;;;5031623;28;20028;-65
2023/04/10 04:46:14;;;;;;;72.38;41.72;;;6.10;99.90;;;;;;5065332;28;20415;-65
2023/04/10 04:48:40;;;;;;;75.45;43.63;;;6.10;99.90;;;;;;5062834;28;20131;-65
2023/04/10 04:51:06;;;;;;;78.13;44.25;;;6.20;99.90;;;;;;5061132;28;20486;-65
2023/04/10 04:53:32;;;;;;;75.88;44.30;;;6.20;99.90;;;;;;5065441;28;20044;-65
2023/04/10 04:55:58;;;;;;;82.15;46.45;;;6.20;99.90;;;;;;5064122;28;20036;-65
2023/04/10 04:58:23;;;;;;;71.75;43.13;;;6.20;99.90;;;;;;5056825;28;20036;-65
2023/04/10 05:00:53;;;;;;;79.22;44.72;;;6.20;99.90;;;;;;5064010;28;20037;-65
2023/04/10 05:03:19;;;;;;;74.60;42.83;;;6.20;99.90;;;;;;5064722;28;20040;-65
2023/04/10 05:05:45;;;;;;;75.15;42.95;;;6.20;99.90;;;;;;5063813;28;20047;-65
2023/04/10 05:08:11;;;;;;;79.32;43.72;;;6.20;99.90;;;;;;5062362;28;20052;-66
2023/04/10 05:10:36;;;;;;;75.80;42.97;;;6.20;99.90;;;;;;5064881;28;20040;-65
2023/04/10 05:13:02;;;;;;;75.75;43.35;;;6.30;99.90;;;;;;5064784;28;20048;-65
2023/04/10 05:15:28;;;;;;;73.47;43.10;;;6.30;99.90;;;;;;5065526;28;20098;-65
2023/04/10 05:17:54;;;;;;;78.30;45.30;;;6.30;99.90;;;;;;5064162;28;20040;-65
2023/04/10 05:20:20;;;;;;;75.55;43.53;;;6.30;99.90;;;;;;5064548;28;20044;-65
2023/04/10 05:22:47;;;;;;;79.10;43.85;;;6.30;99.90;;;;;;5061934;28;20048;-65
2023/04/10 05:25:12;;;;;;;77.85;45.50;;;6.30;99.90;;;;;;5073416;28;20036;-64
2023/04/10 05:27:38;;;;;;;81.18;46.72;;;6.30;99.90;;;;;;5063870;28;20681;-65
2023/04/10 05:30:04;;;;;;;78.53;45.25;;;6.30;99.90;;;;;;5057632;28;20497;-65
2023/04/10 05:32:30;;;;;;;74.53;43.25;;;6.30;99.90;;;;;;5079706;28;20051;-65
2023/04/10 05:34:56;;;;;;;80.47;44.10;;;6.30;99.90;;;;;;5063497;28;20052;-65
2023/04/10 05:37:22;;;;;;;75.75;44.05;;;6.40;99.90;;;;;;5043367;28;20049;-65
2023/04/10 05:39:47;;;;;;;76.80;45.72;;;6.40;99.90;;;;;;5062791;28;20037;-65
2023/04/10 05:42:13;;;;;;;73.95;43.67;;;6.40;99.90;;;;;;5061947;28;20099;-65
2023/04/10 05:44:39;;;;;;;75.60;43.70;;;6.50;99.90;;;;;;5059615;28;20467;-65
2023/04/10 05:47:05;;;;;;;74.22;42.42;;;6.40;99.90;;;;;;5063302;28;20049;-65
2023/04/10 05:49:31;;;;;;;78.88;44.45;;;6.50;99.90;;;;;;5060617;28;20040;-64
2023/04/10 05:51:57;;;;;;;72.43;42.95;;;6.50;99.90;;;;;;5060396;28;20397;-65
2023/04/10 05:54:23;;;;;;;74.90;42.50;;;6.50;99.90;;;;;;5064175;28;20056;-65
2023/04/10 05:56:48;;;;;;;68.00;41.30;;;6.60;99.90;;;;;;5065395;28;20055;-65
2023/04/10 05:59:14;;;;;;;72.63;42.45;;;6.60;99.90;;;;;;5064278;28;20048;-64
2023/04/10 06:01:41;;;;;;;67.25;39.25;;;6.70;99.90;;;;;;5064160;28;20102;-65
2023/04/10 06:04:06;;;;;;;68.00;38.97;;;6.80;99.90;;;;;;5065642;28;20056;-64
2023/04/10 06:06:32;;;;;;;68.80;41.45;;;6.80;99.90;;;;;;5061428;28;20066;-65
2023/04/10 06:08:58;;;;;;;73.65;40.70;;;6.90;99.90;;;;;;5044415;28;20039;-65
2023/04/10 06:11:24;;;;;;;65.60;38.80;;;6.90;99.90;;;;;;5062385;28;20036;-65
2023/04/10 06:13:50;;;;;;;70.18;41.75;;;7.00;99.90;;;;;;5063687;28;20402;-65
2023/04/10 06:16:15;;;;;;;66.82;40.53;;;7.00;99.90;;;;;;5061286;28;20040;-65
2023/04/10 06:18:41;;;;;;;71.03;40.33;;;7.10;99.90;;;;;;5061493;28;20028;-65
2023/04/10 06:21:07;;;;;;;67.90;41.38;;;7.20;99.90;;;;;;5062803;28;20086;-65
2023/04/10 06:23:33;;;;;;;67.13;39.70;;;7.20;99.90;;;;;;5063200;28;20040;-65
2023/04/10 06:26:00;;;;;;;68.72;38.90;;;7.30;99.90;;;;;;5078835;28;20033;-65
2023/04/10 06:28:26;;;;;;;64.90;38.75;;;7.40;99.90;;;;;;5062264;28;20048;-65
2023/04/10 06:30:52;;;;;;;62.53;34.17;;;7.50;99.90;;;;;;5068477;28;20037;-65
2023/04/10 06:33:17;;;;;;;63.30;38.00;;;7.60;99.90;;;;;;5062543;28;20628;-65
2023/04/10 06:35:43;;;;;;;67.22;39.03;;;7.70;99.90;;;;;;5042292;28;20171;-65
2023/04/10 06:38:09;;;;;;;59.45;35.55;;;7.80;99.90;;;;;;5063021;28;20047;-65
2023/04/10 06:40:34;;;;;;;60.88;35.05;;;8.00;99.90;;;;;;5061303;28;20417;-65
2023/04/10 06:43:00;;;;;;;61.55;35.72;;;8.10;99.90;;;;;;5061960;28;20170;-65
2023/04/10 06:45:26;;;;;;;59.05;34.92;;;8.20;99.90;;;;;;5063990;28;20047;-65
2023/04/10 06:47:52;;;;;;;57.25;33.95;;;8.30;99.90;;;;;;5053312;28;20044;-65
2023/04/10 06:50:18;;;;;;;45.63;27.13;;;8.40;99.90;;;;;;5068152;28;20042;-65
2023/04/10 06:52:44;;;;;;;57.88;33.72;;;8.60;99.90;;;;;;5062446;28;20045;-65
2023/04/10 06:55:11;;;;;;;55.53;31.73;;;8.70;99.90;;;;;;5063695;28;20050;-65
2023/04/10 06:57:38;;;;;;;56.40;32.75;;;8.80;99.90;;;;;;5061720;28;20046;-65
2023/04/10 07:00:05;;;;;;;48.72;30.48;;;8.90;99.90;;;;;;5062926;28;20066;-65
2023/04/10 07:02:31;;;;;;;49.97;30.52;;;9.00;99.90;;;;;;5078356;28;20040;-65
2023/04/10 07:04:56;;;;;;;41.35;26.05;;;9.10;99.90;;;;;;5064148;28;20033;-65
2023/04/10 07:07:22;;;;;;;51.15;30.52;;;9.20;99.90;;;;;;5063021;28;20029;-64
2023/04/10 07:09:48;;;;;;;50.08;29.25;;;9.20;99.90;;;;;;5059894;28;20041;-65
2023/04/10 07:12:15;;;;;;;52.15;29.38;;;9.30;99.90;;;;;;5063681;28;20051;-65
2023/04/10 07:14:41;;;;;;;46.80;28.77;;;9.30;99.90;;;;;;5058814;28;20121;-67
2023/04/10 07:17:07;;;;;;;46.70;28.67;;;9.40;99.90;;;;;;5048957;28;20127;-65
2023/04/10 07:19:33;;;;;;;47.15;27.35;;;9.40;99.90;;;;;;5067284;28;20125;-65
2023/04/10 07:21:59;;;;;;;40.60;26.67;;;9.50;99.90;;;;;;5063301;28;20073;-65
2023/04/10 07:24:25;;;;;;;44.63;26.58;;;9.50;99.90;;;;;;5060678;28;20049;-65
2023/04/10 07:26:51;;;;;;;46.15;27.27;;;9.50;99.90;;;;;;5065909;28;20648;-65
2023/04/10 07:29:17;;;;;;;46.65;27.73;;;9.50;99.90;;;;;;5061385;28;20131;-65
2023/04/10 07:31:43;;;;;;;43.50;26.33;;;9.60;99.90;;;;;;5071356;28;20032;-65
2023/04/10 07:34:10;;;;;;;44.38;26.90;;;9.70;99.90;;;;;;5069611;28;20098;-65
2023/04/10 07:36:36;;;;;;;45.35;26.83;;;9.80;99.90;;;;;;5072294;28;20032;-65
2023/04/10 07:39:01;;;;;;;37.47;23.92;;;10.10;99.90;;;;;;5070638;28;20593;-65
2023/04/10 07:41:27;;;;;;;40.70;23.90;;;10.30;99.90;;;;;;5071717;28;20040;-65
2023/04/10 07:43:53;;;;;;;40.25;24.77;;;10.50;99.90;;;;;;5071263;28;20048;-65
2023/04/10 07:46:19;;;;;;;37.92;24.23;;;10.70;99.90;;;;;;5051319;28;20063;-65
2023/04/10 07:48:46;;;;;;;35.97;21.73;;;10.90;99.90;;;;;;5069546;28;20493;-65
2023/04/10 07:51:12;;;;;;;38.53;23.23;;;11.00;99.90;;;;;;5071588;28;20044;-65
2023/04/10 07:53:39;;;;;;;33.90;22.65;;;11.20;99.90;;;;;;5062337;28;20051;-65
2023/04/10 07:56:05;;;;;;;36.83;22.70;;;11.40;99.90;;;;;;5069385;28;20521;-65
2023/04/10 07:58:31;;;;;;;36.88;23.20;;;11.70;99.90;;;;;;5055656;28;20550;-65
2023/04/10 08:00:58;;;;;;;36.70;21.88;;;12.10;99.90;;;;;;5064484;28;20040;-65
2023/04/10 08:03:23;;;;;;;30.77;22.45;;;12.80;98.50;;;;;;5075875;28;20047;-65
2023/04/10 08:05:49;;;;;;;33.00;21.85;;;12.80;97.30;;;;;;5071137;28;20028;-65
2023/04/10 08:08:15;;;;;;;31.23;18.45;;;12.90;97.60;;;;;;5071571;28;20037;-65
2023/04/10 08:10:41;;;;;;;31.13;19.27;;;12.50;96.50;;;;;;5044441;28;20040;-65
2023/04/10 08:13:07;;;;;;;32.72;21.23;;;12.60;96.70;;;;;;5086052;28;20035;-66
2023/04/10 08:15:33;;;;;;;30.63;20.27;;;12.90;96.90;;;;;;5071375;28;20432;-66
2023/04/10 08:17:59;;;;;;;32.72;20.02;;;13.20;96.20;;;;;;5067654;28;20024;-66
2023/04/10 08:20:25;;;;;;;28.90;20.92;;;13.80;95.00;;;;;;5070053;28;20550;-66
2023/04/10 08:22:51;;;;;;;29.85;19.80;;;14.20;94.60;;;;;;5075349;28;20027;-66
2023/04/10 08:25:17;;;;;;;31.00;19.90;;;14.20;94.40;;;;;;5069570;28;20048;-66
2023/04/10 08:27:42;;;;;;;30.80;20.15;;;14.20;94.30;;;;;;5069757;28;20040;-66
2023/04/10 08:30:08;;;;;;;28.38;19.35;;;14.50;94.10;;;;;;5069205;28;20062;-66
2023/04/10 08:32:35;;;;;;;29.58;19.27;;;14.20;94.00;;;;;;5062947;28;20044;-66
2023/04/10 08:35:00;;;;;;;28.17;18.05;;;14.00;93.40;;;;;;5065391;28;20085;-66
2023/04/10 08:37:26;;;;;;;28.42;19.90;;;13.80;93.60;;;;;;5075313;28;20044;-66
2023/04/10 08:39:52;;;;;;;28.95;19.63;;;13.70;94.10;;;;;;5063817;28;20068;-66
2023/04/10 08:42:18;;;;;;;32.50;20.13;;;13.80;93.50;;;;;;5060516;28;20079;-66
2023/04/10 08:44:45;;;;;;;30.90;21.35;;;14.10;93.70;;;;;;5047134;28;20097;-65
2023/04/10 08:47:13;;;;;;;30.83;19.65;;;14.10;93.60;;;;;;5063198;28;20223;-65
2023/04/10 08:49:55;;;;;;;30.35;21.42;;;14.30;93.20;;;;;;5064273;28;20033;-65
2023/04/10 08:52:24;;;;;;;32.28;21.50;;;14.20;93.40;;;;;;5068293;28;20048;-66
2023/04/10 08:54:54;;;;;;;29.75;20.50;;;14.00;93.40;;;;;;5068719;28;20134;-65
2023/04/10 08:57:21;;;;;;;29.58;19.83;;;13.70;93.50;;;;;;5066004;28;20094;-65
2023/04/10 08:59:49;;;;;;;28.25;18.50;;;13.60;93.80;;;;;;5049273;28;20076;-65
2023/04/10 09:02:15;;;;;;;29.98;19.08;;;13.40;93.90;;;;;;5063678;28;20545;-65
2023/04/10 09:04:47;;;;;;;29.90;18.35;;;13.60;94.30;;;;;;5069993;28;20123;-65
2023/04/10 09:07:13;;;;;;;27.83;17.98;;;13.80;94.40;;;;;;5063786;28;20492;-66
2023/04/10 09:09:39;;;;;;;29.65;17.40;;;14.00;94.20;;;;;;5070552;28;20036;-65
2023/04/10 09:12:05;;;;;;;24.98;17.40;;;13.90;93.30;;;;;;5069452;28;20075;-65
2023/04/10 09:14:36;;;;;;;27.23;17.05;;;13.70;93.60;;;;;;5067417;28;20040;-65
2023/04/10 09:17:15;;;;;;;25.65;14.98;;;13.80;93.90;;;;;;5083679;28;20442;-65
2023/04/10 09:19:43;;;;;;;23.63;16.58;;;13.90;92.90;;;;;;5059735;28;20047;-65
2023/04/10 09:22:09;;;;;;;24.15;16.63;;;14.10;93.30;;;;;;5063080;28;20352;-66
2023/04/10 09:24:39;;;;;;;20.98;14.07;;;14.40;93.00;;;;;;5067472;28;20045;-65
2023/04/10 09:27:06;;;;;;;24.05;15.80;;;14.50;92.60;;;;;;5067863;28;20040;-65
2023/04/10 09:29:50;;;;;;;23.50;15.75;;;14.60;92.70;;;;;;5070253;28;20071;-65
2023/04/10 09:32:42;;;;;;;23.10;15.40;;;14.60;92.90;;;;;;5067070;28;20040;-65
2023/04/10 09:35:08;;;;;;;20.48;14.68;;;15.00;92.30;;;;;;5063533;28;20036;-65
2023/04/10 09:37:35;;;;;;;23.45;15.18;;;15.60;92.80;;;;;;5067326;28;20492;-65
2023/04/10 09:40:02;;;;;;;22.45;15.32;;;15.40;91.40;;;;;;5063081;28;20117;-63
2023/04/10 09:42:32;;;;;;;20.65;14.80;;;15.60;91.80;;;;;;5061921;28;20040;-64
2023/04/10 09:45:00;;;;;;;20.70;15.10;;;15.90;91.70;;;;;;5068366;28;20040;-63
2023/04/10 09:47:26;;;;;;;21.17;14.90;;;15.70;90.90;;;;;;5060246;28;20053;-64
2023/04/10 09:49:59;;;;;;;23.05;15.20;;;15.30;91.30;;;;;;5067763;28;20098;-64
2023/04/10 09:52:34;;;;;;;19.55;14.00;;;15.20;91.70;;;;;;5067173;28;20447;-64
2023/04/10 09:55:03;;;;;;;17.95;12.48;;;15.30;92.20;;;;;;5068310;28;20059;-64
2023/04/10 09:57:30;;;;;;;18.05;13.23;;;15.40;91.40;;;;;;5063757;28;20063;-63
2023/04/10 09:59:58;;;;;;;14.88;11.35;;;15.10;91.20;;;;;;5063900;28;20040;-64
2023/04/10 10:02:28;;;;;;;15.25;10.18;;;14.90;90.70;;;;;;5060144;28;20055;-64
2023/04/10 10:04:55;;;;;;;16.67;12.73;;;14.80;91.10;;;;;;5062918;28;20044;-64
2023/04/10 10:07:22;;;;;;;14.57;10.55;;;14.90;91.30;;;;;;5063192;28;20425;-64
2023/04/10 10:09:50;;;;;;;13.18;9.77;;;15.00;90.80;;;;;;5060270;28;20478;-64
2023/04/10 10:12:25;;;;;;;14.68;10.27;;;15.20;91.20;;;;;;5063554;28;20444;-64
2023/04/10 10:15:15;;;;;;;15.13;9.88;;;15.40;90.70;;;;;;5057498;28;20029;-64
2023/04/10 10:18:25;;;;;;;12.25;8.57;;;15.70;90.20;;;;;;5064241;28;20040;-64
2023/04/10 10:20:52;;;;;;;11.88;9.18;;;16.00;89.20;;;;;;5065230;28;20032;-64
2023/04/10 10:23:19;;;;;;;13.80;9.07;;;16.10;87.60;;;;;;5061245;28;20549;-64
2023/04/10 10:25:47;;;;;;;13.73;9.00;;;16.30;89.60;;;;;;5061658;28;20244;-64
2023/04/10 10:28:13;;;;;;;11.38;8.90;;;16.50;88.50;;;;;;5060734;28;20516;-64
2023/04/10 10:30:40;;;;;;;11.95;8.60;;;16.60;86.10;;;;;;5062861;28;20033;-64
2023/04/10 10:33:06;;;;;;;12.25;9.85;;;16.70;87.90;;;;;;5062488;28;20183;-64
2023/04/10 10:35:36;;;;;;;11.20;8.93;;;16.50;85.60;;;;;;5061711;28;20040;-64
2023/04/10 10:38:03;;;;;;;12.10;8.82;;;16.50;85.70;;;;;;5073401;28;20382;-64
2023/04/10 10:40:53;;;;;;;12.75;9.23;;;16.50;85.50;;;;;;5063895;28;20045;-65
2023/04/10 10:43:44;;;;;;;11.70;8.68;;;16.70;85.40;;;;;;5072114;28;20508;-64
2023/04/10 10:46:15;;;;;;;14.35;8.25;;;17.10;86.40;;;;;;5043295;28;20690;-64
2023/04/10 10:48:57;;;;;;;11.25;8.77;;;17.30;85.20;;;;;;5062416;28;20047;-64
2023/04/10 10:51:31;;;;;;;12.05;8.10;;;16.80;83.10;;;;;;5044798;28;20047;-64
2023/04/10 10:53:57;;;;;;;10.43;7.45;;;16.70;83.70;;;;;;5067717;28;20063;-64
2023/04/10 10:56:25;;;;;;;9.75;8.07;;;16.80;84.70;;;;;;5077063;28;20044;-64
2023/04/10 10:58:53;;;;;;;9.40;7.18;;;16.70;81.80;;;;;;5067083;28;20087;-64
2023/04/10 11:01:20;;;;;;;9.00;6.68;;;16.40;81.90;;;;;;5065714;28;20036;-64
2023/04/10 11:03:46;;;;;;;10.70;6.63;;;16.30;83.00;;;;;;5065657;28;20097;-64
2023/04/10 11:06:18;;;;;;;8.00;6.28;;;16.50;84.60;;;;;;5046805;28;20041;-64
2023/04/10 11:08:48;;;;;;;8.75;6.97;;;16.60;82.80;;;;;;5063542;28;20570;-65
2023/04/10 11:11:22;;;;;;;8.48;6.22;;;16.60;83.90;;;;;;5066074;28;20037;-65
2023/04/10 11:13:56;;;;;;;7.22;5.90;;;16.90;85.30;;;;;;5066440;28;20048;-64
2023/04/10 11:16:40;;;;;;;8.50;6.25;;;16.90;82.90;;;;;;5047634;28;21403;-64
2023/04/10 11:19:13;;;;;;;7.57;6.07;;;16.90;83.60;;;;;;5065075;28;20068;-64
2023/04/10 11:22:06;;;;;;;8.50;6.47;;;16.70;83.60;;;;;;5067459;28;20036;-64
2023/04/10 11:24:51;;;;;;;;;;;16.60;84.20;;;;;;5067306;28;20044;-65
2023/04/10 11:27:40;;;;;;;8.45;5.88;;;16.30;82.50;;;;;;5064317;28;20527;-64
2023/04/10 11:30:29;;;;;;;9.18;6.38;;;16.20;81.50;;;;;;5075386;28;20040;-64
2023/04/10 11:32:55;;;;;;;9.30;6.15;;;16.10;82.80;;;;;;5066800;28;20060;-64
2023/04/10 11:35:21;;;;;;;8.27;5.90;;;16.10;82.80;;;;;;5047869;28;20070;-64
2023/04/10 11:37:46;;;;;;;7.30;5.57;;;16.00;82.90;;;;;;5066162;28;20052;-64
2023/04/10 11:40:13;;;;;;;6.80;5.10;;;16.10;84.00;;;;;;5066044;28;20039;-64
2023/04/10 11:42:39;;;;;;;8.43;4.93;;;16.20;83.50;;;;;;5066286;28;20493;-64
2023/04/10 11:45:26;;;;;;;6.03;4.82;;;16.40;85.90;;;;;;5061560;28;20037;-64
2023/04/10 11:47:53;;;;;;;5.60;4.50;;;16.50;83.40;;;;;;5063588;28;20106;-64
2023/04/10 11:50:20;;;;;;;6.15;4.85;;;16.50;82.90;;;;;;5063010;28;20150;-64
2023/04/10 11:52:52;;;;;;;5.35;4.50;;;16.50;83.60;;;;;;5045457;28;20067;-64
2023/04/10 11:55:17;;;;;;;6.20;4.40;;;16.50;82.70;;;;;;5066791;28;20463;-64
2023/04/10 11:57:44;;;;;;;4.95;3.88;;;16.50;82.80;;;;;;5073305;28;20040;-64
2023/04/10 12:00:10;;;;;;;6.97;3.83;;;16.50;82.60;;;;;;5070984;28;20036;-64
2023/04/10 12:02:50;;;;;;;4.88;3.72;;;16.40;81.40;;;;;;5068526;28;20062;-64
2023/04/10 12:05:16;;;;;;;4.45;3.72;;;16.40;81.60;;;;;;5068243;28;20375;-64
2023/04/10 12:07:42;;;;;;;5.50;3.63;;;16.30;81.10;;;;;;5046752;28;20040;-64
2023/04/10 12:10:08;;;;;;;7.80;4.20;;;16.30;81.40;;;;;;5065152;28;20039;-64
2023/04/10 12:12:37;;;;;;;6.63;3.97;;;16.50;81.20;;;;;;5043474;28;20058;-64
2023/04/10 12:15:26;;;;;;;5.90;4.10;;;16.60;80.10;;;;;;5063080;28;20040;-64
2023/04/10 12:17:52;;;;;;;4.57;4.00;;;16.70;79.00;;;;;;5065971;28;20071;-64
2023/04/10 12:20:18;;;;;;;5.78;4.15;;;16.70;81.80;;;;;;5061953;28;20071;-64
2023/04/10 12:22:45;;;;;;;4.55;4.00;;;16.90;81.80;;;;;;5047193;28;20063;-64
2023/04/10 12:25:11;;;;;;;5.03;4.05;;;17.00;79.90;;;;;;5058662;28;20032;-64
2023/04/10 12:27:37;;;;;;;5.97;4.53;;;17.00;80.40;;;;;;5065899;28;20489;-64
2023/04/10 12:30:07;;;;;;;5.95;4.50;;;17.20;80.70;;;;;;5062837;28;20039;-64
2023/04/10 12:32:33;;;;;;;6.05;4.35;;;17.40;81.30;;;;;;5065858;28;20056;-64
2023/04/10 12:35:02;;;;;;;6.80;4.05;;;17.40;81.60;;;;;;5066870;28;20059;-64
2023/04/10 12:37:51;;;;;;;5.80;4.30;;;17.70;82.30;;;;;;5060488;28;20043;-64
2023/04/10 12:40:19;;;;;;;5.53;3.97;;;17.80;81.60;;;;;;5057598;28;20190;-64
2023/04/10 12:42:45;;;;;;;5.57;4.10;;;18.00;82.70;;;;;;5062313;28;20024;-64